createdAt,value
2019-02-16T07:19:46.058Z,5.37
2019-02-16T07:22:16.799Z,6.10
2019-02-16T07:24:51.955Z,8.30
2019-02-16T07:27:22.779Z,6.43
2019-02-16T07:29:53.707Z,5.50
2019-02-16T07:32:24.504Z,8.33
2019-02-16T07:34:55.248Z,5.37
2019-02-16T07:37:26.200Z,10.63
2019-02-16T07:39:59.371Z,5.57
2019-02-16T07:42:48.269Z,7.60
2019-02-16T07:45:35.748Z,6.40
2019-02-16T07:48:42.789Z,7.20
2019-02-16T07:51:44.313Z,6.03
2019-02-16T07:54:33.046Z,7.70
2019-02-16T07:57:26.084Z,6.33
2019-02-16T08:00:15.012Z,5.10
2019-02-16T08:03:14.089Z,6.83
2019-02-16T08:06:05.323Z,5.83
2019-02-16T08:08:50.816Z,6.20
2019-02-16T08:11:42.853Z,7.27
2019-02-16T08:14:20.911Z,6.60
2019-02-16T08:17:13.493Z,7.10
2019-02-16T08:19:59.776Z,5.50
2019-02-16T08:22:41.010Z,6.30
2019-02-16T08:25:33.471Z,5.70
2019-02-16T08:28:12.000Z,5.40
2019-02-16T08:30:55.089Z,6.47
2019-02-16T08:33:54.294Z,5.70
2019-02-16T08:38:50.725Z,6.33
2019-02-16T08:40:21.860Z,5.80
2019-02-16T08:43:04.100Z,6.90
2019-02-16T08:45:50.445Z,6.87
2019-02-16T08:48:37.349Z,6.97
2019-02-16T08:51:24.079Z,6.43
2019-02-16T08:54:17.091Z,4.97
2019-02-16T08:57:10.675Z,5.80
2019-02-16T08:59:59.171Z,6.27
2019-02-16T09:02:58.023Z,7.63
2019-02-16T09:05:40.622Z,6.50
2019-02-16T09:08:18.480Z,6.93
2019-02-16T09:11:07.152Z,9.20
2019-02-16T09:13:50.089Z,8.17
2019-02-16T09:16:31.311Z,7.47
2019-02-16T09:19:18.661Z,8.57
2019-02-16T09:22:02.952Z,9.73
2019-02-16T09:24:51.709Z,5.13
2019-02-16T09:27:45.603Z,8.50
2019-02-16T09:30:34.376Z,7.97
2019-02-16T09:33:26.716Z,7.23
2019-02-16T09:36:31.976Z,6.57
2019-02-16T09:39:12.618Z,6.67
2019-02-16T09:41:59.783Z,7.53
2019-02-16T09:44:53.920Z,11.90
2019-02-16T09:48:01.482Z,6.50
2019-02-16T09:51:14.779Z,7.57
2019-02-16T09:54:08.356Z,11.80
2019-02-16T09:56:51.711Z,6.63
2019-02-16T09:59:37.448Z,11.40
2019-02-16T10:02:30.954Z,10.37
2019-02-16T10:05:20.988Z,7.83
2019-02-16T10:08:13.146Z,6.03
2019-02-16T10:10:53.379Z,7.30
2019-02-16T10:13:43.199Z,5.60
2019-02-16T10:16:36.251Z,10.37
2019-02-16T10:19:40.482Z,5.50
2019-02-16T10:22:22.527Z,7.23
2019-02-16T10:25:16.624Z,6.87
2019-02-16T10:28:03.590Z,6.60
2019-02-16T10:30:55.083Z,8.50
2019-02-16T10:34:06.203Z,6.33
2019-02-16T10:36:57.785Z,6.20
2019-02-16T10:40:03.987Z,10.20
2019-02-16T10:42:45.059Z,11.47
2019-02-16T10:45:33.428Z,5.47
2019-02-16T10:48:12.345Z,9.37
2019-02-16T10:50:51.317Z,7.23
2019-02-16T10:53:54.523Z,15.97
2019-02-16T10:56:35.301Z,6.87
2019-02-16T10:59:40.274Z,10.23
2019-02-16T11:02:38.823Z,6.27
2019-02-16T11:05:34.379Z,5.60
2019-02-16T11:08:15.763Z,6.93
2019-02-16T11:11:08.856Z,7.27
2019-02-16T11:13:54.780Z,6.93
2019-02-16T11:16:44.953Z,7.37
2019-02-16T11:19:42.930Z,6.97
2019-02-16T11:22:19.048Z,7.97
2019-02-16T11:25:13.799Z,7.83
2019-02-16T11:28:20.366Z,8.27
2019-02-16T11:31:05.165Z,9.43
2019-02-16T11:34:02.766Z,11.13
2019-02-16T11:36:45.915Z,9.33
2019-02-16T11:39:49.221Z,9.30
2019-02-16T11:42:26.871Z,6.60
2019-02-16T11:45:20.395Z,7.23
2019-02-16T11:48:13.343Z,11.70
2019-02-16T11:51:09.288Z,8.17
2019-02-16T11:53:56.385Z,6.33
2019-02-16T11:56:52.327Z,8.37
2019-02-16T11:59:57.002Z,11.20
2019-02-16T12:02:49.827Z,9.27
2019-02-16T12:05:45.387Z,7.90
2019-02-16T12:08:27.142Z,8.57
2019-02-16T12:11:13.340Z,9.00
2019-02-16T12:14:06.007Z,8.33
2019-02-16T12:16:51.794Z,9.63
2019-02-16T12:19:41.767Z,9.00
2019-02-16T12:22:36.876Z,8.50
2019-02-16T12:25:21.265Z,10.20
2019-02-16T12:28:21.614Z,13.07
2019-02-16T12:31:04.036Z,8.67
2019-02-16T12:33:55.749Z,9.50
2019-02-16T12:36:55.091Z,10.27
2019-02-16T12:39:44.873Z,8.60
2019-02-16T12:42:30.963Z,8.97
2019-02-16T12:45:21.475Z,10.63
2019-02-16T12:48:04.906Z,10.53
2019-02-16T12:50:43.705Z,9.67
2019-02-16T12:53:32.280Z,11.00
2019-02-16T12:56:16.414Z,11.27
2019-02-16T12:58:56.804Z,13.27
2019-02-16T13:01:43.020Z,12.43
2019-02-16T13:04:40.236Z,8.60
2019-02-16T13:07:16.396Z,11.13
2019-02-16T13:09:55.925Z,9.37
2019-02-16T13:12:44.476Z,9.90
2019-02-16T13:15:49.027Z,8.43
2019-02-16T13:18:39.708Z,9.73
2019-02-16T13:21:27.339Z,10.77
2019-02-16T13:24:09.104Z,12.63
2019-02-16T13:26:49.177Z,10.70
2019-02-16T13:29:48.220Z,15.43
2019-02-16T13:32:38.035Z,7.50
2019-02-16T13:35:31.037Z,10.27
2019-02-16T13:38:30.345Z,10.00
2019-02-16T13:41:19.004Z,9.50
2019-02-16T13:44:11.752Z,10.03
2019-02-16T13:46:54.482Z,11.10
2019-02-16T13:49:37.467Z,9.90
2019-02-16T13:52:36.259Z,12.70
2019-02-16T13:55:17.417Z,12.27
2019-02-16T13:58:09.717Z,9.73
2019-02-16T14:00:59.599Z,7.70
2019-02-16T14:03:52.308Z,10.70
2019-02-16T14:06:42.139Z,9.13
2019-02-16T14:09:29.722Z,8.77
2019-02-16T14:12:15.633Z,10.80
2019-02-16T14:15:07.580Z,9.70
2019-02-16T14:17:47.552Z,10.50
2019-02-16T14:20:18.161Z,10.40
2019-02-16T14:22:48.894Z,11.23
2019-02-16T14:25:43.749Z,7.23
2019-02-16T14:28:12.998Z,7.80
2019-02-16T14:30:43.658Z,10.43
2019-02-16T14:33:16.299Z,8.20
2019-02-16T14:35:47.038Z,15.07
2019-02-16T14:38:35.389Z,9.87
2019-02-16T14:41:09.103Z,12.20
2019-02-16T14:43:39.796Z,11.67
2019-02-16T14:46:11.517Z,9.10
2019-02-16T14:48:42.320Z,12.33
2019-02-16T14:51:12.965Z,11.67
2019-02-16T14:53:43.455Z,8.20
2019-02-16T14:56:14.312Z,8.70
2019-02-16T14:58:45.183Z,12.00
2019-02-16T15:01:15.923Z,12.13
2019-02-16T15:03:46.784Z,9.50
2019-02-16T15:06:17.661Z,9.60
2019-02-16T15:08:48.482Z,10.17
2019-02-16T15:11:20.975Z,10.70
2019-02-16T15:13:51.631Z,11.47
2019-02-16T15:16:22.996Z,10.27
2019-02-16T15:18:53.804Z,14.63
2019-02-16T15:21:26.457Z,9.97
2019-02-16T15:23:58.587Z,11.80
2019-02-16T15:26:29.469Z,12.97
2019-02-16T15:29:03.033Z,8.87
2019-02-16T15:31:35.925Z,11.83
2019-02-16T15:34:06.765Z,13.53
2019-02-16T15:36:37.628Z,12.27
2019-02-16T15:39:08.509Z,14.90
2019-02-16T15:41:39.507Z,16.77
2019-02-16T15:44:10.816Z,15.27
2019-02-16T15:46:41.765Z,18.70
2019-02-16T15:49:14.086Z,14.23
2019-02-16T15:51:44.916Z,11.40
2019-02-16T15:54:15.889Z,14.63
2019-02-16T15:56:48.314Z,13.40
2019-02-16T15:59:20.896Z,10.30
2019-02-16T16:01:54.948Z,15.43
2019-02-16T16:04:25.918Z,14.63
2019-02-16T16:06:56.670Z,20.33
2019-02-16T16:09:39.302Z,13.50
2019-02-16T16:12:24.627Z,16.00
2019-02-16T16:15:17.378Z,17.90
2019-02-16T16:17:59.198Z,15.20
2019-02-16T16:20:49.421Z,14.47
2019-02-16T16:23:39.654Z,13.03
2019-02-16T16:26:23.659Z,18.00
2019-02-16T16:29:13.604Z,17.80
2019-02-16T16:32:05.830Z,12.23
2019-02-16T16:35:04.540Z,13.30
2019-02-16T16:37:40.528Z,17.73
2019-02-16T16:40:31.621Z,17.73
2019-02-16T16:43:36.918Z,19.40
2019-02-16T16:46:26.723Z,14.10
2019-02-16T16:49:16.991Z,21.70
2019-02-16T16:52:15.116Z,15.27
2019-02-16T16:55:10.529Z,18.57
2019-02-16T16:57:51.129Z,15.73
2019-02-16T17:00:51.520Z,14.53
2019-02-16T17:03:40.185Z,19.53
2019-02-16T17:06:36.193Z,23.23
2019-02-16T17:09:26.884Z,21.30
2019-02-16T17:12:22.739Z,18.03
2019-02-16T17:15:26.786Z,24.73
2019-02-16T17:18:08.889Z,27.07
2019-02-16T17:20:59.650Z,19.33
2019-02-16T17:23:49.694Z,26.23
2019-02-16T17:26:42.053Z,18.57
2019-02-16T17:29:19.687Z,18.47
2019-02-16T17:32:00.827Z,27.30
2019-02-16T17:34:42.178Z,15.73
2019-02-16T17:37:32.163Z,17.97
2019-02-16T17:40:40.450Z,17.97
2019-02-16T17:43:37.307Z,20.53
2019-02-16T17:46:45.607Z,23.90
2019-02-16T17:49:33.656Z,19.77
2019-02-16T17:52:19.330Z,23.27
2019-02-16T17:55:21.724Z,23.50
2019-02-16T17:58:00.794Z,21.50
2019-02-16T18:00:44.996Z,21.07
2019-02-16T18:03:23.850Z,25.83
2019-02-16T18:06:07.085Z,22.53
2019-02-16T18:09:06.019Z,21.20
2019-02-16T18:11:52.193Z,26.20
2019-02-16T18:14:37.019Z,24.30
2019-02-16T18:18:21.868Z,32.50
2019-02-16T18:21:21.441Z,27.03
2019-02-16T18:24:25.862Z,30.87
2019-02-16T18:27:25.777Z,24.43
2019-02-16T18:30:30.310Z,23.90
2019-02-16T18:33:33.928Z,25.97
2019-02-16T18:36:39.567Z,19.97
2019-02-16T18:39:52.321Z,20.40
2019-02-16T18:42:35.312Z,18.73
2019-02-16T18:45:28.976Z,24.33
2019-02-16T18:48:11.706Z,23.17
2019-02-16T18:51:17.642Z,23.37
2019-02-16T18:54:06.115Z,22.63
2019-02-16T18:57:06.300Z,27.80
2019-02-16T18:59:38.802Z,24.23
2019-02-16T19:02:35.475Z,30.87
2019-02-16T19:05:25.796Z,23.13
2019-02-16T19:08:09.043Z,20.43
2019-02-16T19:10:52.928Z,22.53
2019-02-16T19:14:08.404Z,24.60
2019-02-16T19:17:18.086Z,31.10
2019-02-16T19:19:59.565Z,24.57
2019-02-16T19:22:42.698Z,27.53
2019-02-16T19:25:52.199Z,21.77
2019-02-16T19:28:33.512Z,23.57
2019-02-16T19:31:25.065Z,24.60
2019-02-16T19:34:19.637Z,24.47
2019-02-16T19:37:12.776Z,28.27
2019-02-16T19:40:01.499Z,27.33
2019-02-16T19:42:46.592Z,25.53
2019-02-16T19:45:28.809Z,29.23
2019-02-16T19:48:16.672Z,24.63
2019-02-16T19:51:04.464Z,24.87
2019-02-16T19:53:58.708Z,23.80
2019-02-16T19:56:45.346Z,27.40
2019-02-16T19:59:38.690Z,26.30
2019-02-16T20:02:26.172Z,29.00
2019-02-16T20:05:09.659Z,21.63
2019-02-16T20:07:54.921Z,22.73
2019-02-16T20:10:43.948Z,22.53
2019-02-16T20:13:34.586Z,22.83
2019-02-16T20:16:17.863Z,23.97
2019-02-16T20:19:19.608Z,26.17
2019-02-16T20:22:05.570Z,28.10
2019-02-16T20:25:06.158Z,21.63
2019-02-16T20:28:14.680Z,25.90
2019-02-16T20:31:00.205Z,24.47
2019-02-16T20:33:58.505Z,21.30
2019-02-16T20:36:36.028Z,25.80
2019-02-16T20:39:28.892Z,23.30
2019-02-16T20:42:11.395Z,27.73
2019-02-16T20:44:59.969Z,26.23
2019-02-16T20:47:47.423Z,27.50
2019-02-16T20:51:08.300Z,30.33
2019-02-16T20:54:25.879Z,23.40
2019-02-16T20:57:28.334Z,32.40
2019-02-16T21:00:33.624Z,32.70
2019-02-16T21:03:25.827Z,26.37
2019-02-16T21:06:32.630Z,27.83
2019-02-16T21:09:55.105Z,30.03
2019-02-16T21:12:57.098Z,26.07
2019-02-16T21:23:27.615Z,29.60
2019-02-16T21:26:36.288Z,27.47
2019-02-16T21:29:28.391Z,26.97
2019-02-16T21:32:13.359Z,32.40
2019-02-16T21:35:32.196Z,27.63
2019-02-16T21:38:41.809Z,30.77
2019-02-16T21:41:27.224Z,26.57
2019-02-16T21:44:08.500Z,25.50
2019-02-16T21:47:05.616Z,29.73
2019-02-16T21:50:32.734Z,32.87
2019-02-16T21:53:48.639Z,26.10
2019-02-16T22:00:27.599Z,25.90
2019-02-16T22:03:32.493Z,26.70
2019-02-16T22:09:55.985Z,27.40
2019-02-16T22:13:00.996Z,33.23
2019-02-16T22:16:01.087Z,34.00
2019-02-16T22:18:32.645Z,32.50
2019-02-16T22:21:08.999Z,31.00
2019-02-16T22:23:55.849Z,43.77
2019-02-16T22:26:24.530Z,34.97
2019-02-16T22:28:58.392Z,30.70
2019-02-16T22:31:42.927Z,30.57
2019-02-16T22:34:16.477Z,31.47
2019-02-16T22:36:56.516Z,34.83
2019-02-16T22:39:27.840Z,27.93
2019-02-16T22:41:58.921Z,30.67
2019-02-16T22:44:29.953Z,31.30
2019-02-16T22:47:10.692Z,32.60
2019-02-16T22:49:44.151Z,28.67
2019-02-16T22:52:28.973Z,33.23
2019-02-16T22:55:36.207Z,34.40
2019-02-16T22:57:54.783Z,38.00
2019-02-16T23:00:52.041Z,32.73
2019-02-16T23:03:37.618Z,32.83
2019-02-16T23:06:21.516Z,33.63
2019-02-16T23:09:32.036Z,38.03
2019-02-16T23:12:30.537Z,38.67
2019-02-16T23:15:01.865Z,40.63
2019-02-16T23:17:50.006Z,31.80
2019-02-16T23:20:31.536Z,34.00
2019-02-16T23:23:30.871Z,35.47
2019-02-16T23:26:04.693Z,36.03
2019-02-16T23:28:46.797Z,32.57
2019-02-16T23:31:26.076Z,31.03
2019-02-16T23:34:07.268Z,26.07
2019-02-16T23:36:53.418Z,29.17
2019-02-16T23:39:56.921Z,27.23
2019-02-16T23:42:30.415Z,32.53
2019-02-16T23:45:07.271Z,29.30
2019-02-16T23:47:39.106Z,32.23
2019-02-16T23:50:32.486Z,31.70
2019-02-16T23:53:27.830Z,31.50
2019-02-16T23:56:00.822Z,27.33
2019-02-16T23:59:00.945Z,31.77
